sensor_id;sensor_type;location;lat;lon;timestamp;pressure;altitude;pressure_sealevel;temperature;humidity
10060;BME280;5069;49.306;8.636;2022-12-13T00:00:05;100061.47;;;-2.24;98.43
10060;BME280;5069;49.306;8.636;2022-12-13T00:03:13;100063.22;;;-2.20;98.25
10060;BME280;5069;49.306;8.636;2022-12-13T00:06:14;100045.19;;;-2.15;98.22
10060;BME280;5069;49.306;8.636;2022-12-13T00:09:17;100053.84;;;-2.13;97.35
10060;BME280;5069;49.306;8.636;2022-12-13T00:12:18;100047.72;;;-2.23;97.03
10060;BME280;5069;49.306;8.636;2022-12-13T00:15:20;100049.31;;;-2.31;97.39
10060;BME280;5069;49.306;8.636;2022-12-13T00:18:21;100043.19;;;-2.39;98.82
10060;BME280;5069;49.306;8.636;2022-12-13T00:21:25;100039.00;;;-2.31;98.51
10060;BME280;5069;49.306;8.636;2022-12-13T00:24:27;100039.03;;;-2.28;98.68
10060;BME280;5069;49.306;8.636;2022-12-13T00:27:29;100036.44;;;-2.29;98.45
10060;BME280;5069;49.306;8.636;2022-12-13T00:30:30;100032.16;;;-2.29;98.41
10060;BME280;5069;49.306;8.636;2022-12-13T00:33:32;100039.09;;;-2.23;98.43
10060;BME280;5069;49.306;8.636;2022-12-13T00:36:34;100037.38;;;-2.23;97.70
10060;BME280;5069;49.306;8.636;2022-12-13T00:39:35;100033.91;;;-2.25;97.41
10060;BME280;5069;49.306;8.636;2022-12-13T00:42:37;100023.53;;;-2.28;97.82
10060;BME280;5069;49.306;8.636;2022-12-13T00:45:39;100035.66;;;-2.24;97.88
10060;BME280;5069;49.306;8.636;2022-12-13T00:48:41;100027.00;;;-2.26;97.63
10060;BME280;5069;49.306;8.636;2022-12-13T00:51:43;100034.78;;;-2.24;97.45
10060;BME280;5069;49.306;8.636;2022-12-13T00:54:44;100033.03;;;-2.25;97.80
10060;BME280;5069;49.306;8.636;2022-12-13T00:57:45;100032.13;;;-2.30;97.59
10060;BME280;5069;49.306;8.636;2022-12-13T01:00:47;100029.50;;;-2.32;97.35
10060;BME280;5069;49.306;8.636;2022-12-13T01:03:49;100016.53;;;-2.38;96.49
10060;BME280;5069;49.306;8.636;2022-12-13T01:06:51;100013.09;;;-2.37;97.80
10060;BME280;5069;49.306;8.636;2022-12-13T01:09:56;100018.97;;;-2.48;97.06
10060;BME280;5069;49.306;8.636;2022-12-13T01:12:58;100014.56;;;-2.56;97.84
10060;BME280;5069;49.306;8.636;2022-12-13T01:16:02;100018.81;;;-2.61;97.80
10060;BME280;5069;49.306;8.636;2022-12-13T01:19:05;100029.97;;;-2.63;98.67
10060;BME280;5069;49.306;8.636;2022-12-13T01:22:06;100030.94;;;-2.57;99.78
10060;BME280;5069;49.306;8.636;2022-12-13T01:25:09;100023.25;;;-2.52;98.86
10060;BME280;5069;49.306;8.636;2022-12-13T01:28:11;100031.72;;;-2.61;98.55
10060;BME280;5069;49.306;8.636;2022-12-13T01:31:16;100034.34;;;-2.56;98.11
10060;BME280;5069;49.306;8.636;2022-12-13T01:34:19;100028.25;;;-2.61;98.33
10060;BME280;5069;49.306;8.636;2022-12-13T01:37:26;100024.09;;;-2.53;98.19
10060;BME280;5069;49.306;8.636;2022-12-13T01:40:28;100016.44;;;-2.44;96.96
10060;BME280;5069;49.306;8.636;2022-12-13T01:46:37;100016.25;;;-2.62;97.59
10060;BME280;5069;49.306;8.636;2022-12-13T01:49:38;100002.44;;;-2.64;97.83
10060;BME280;5069;49.306;8.636;2022-12-13T01:52:41;100017.94;;;-2.61;97.17
10060;BME280;5069;49.306;8.636;2022-12-13T01:55:46;100023.03;;;-2.67;97.11
10060;BME280;5069;49.306;8.636;2022-12-13T01:58:52;100016.16;;;-2.68;97.74
10060;BME280;5069;49.306;8.636;2022-12-13T02:01:56;100009.16;;;-2.75;97.44
10060;BME280;5069;49.306;8.636;2022-12-13T02:05:38;100012.50;;;-2.82;98.44
10060;BME280;5069;49.306;8.636;2022-12-13T02:08:43;100007.31;;;-2.85;98.97
10060;BME280;5069;49.306;8.636;2022-12-13T02:11:45;99997.94;;;-2.80;98.96
10060;BME280;5069;49.306;8.636;2022-12-13T02:14:47;100003.13;;;-2.77;99.35
10060;BME280;5069;49.306;8.636;2022-12-13T02:24:35;99993.94;;;-2.57;98.65
10060;BME280;5069;49.306;8.636;2022-12-13T02:27:50;99993.97;;;-2.54;98.19
10060;BME280;5069;49.306;8.636;2022-12-13T02:34:24;99991.34;;;-2.59;97.22
10060;BME280;5069;49.306;8.636;2022-12-13T02:37:47;99992.22;;;-2.55;97.26
10060;BME280;5069;49.306;8.636;2022-12-13T02:44:17;99993.97;;;-2.54;97.16
10060;BME280;5069;49.306;8.636;2022-12-13T02:47:25;99997.44;;;-2.52;96.42
10060;BME280;5069;49.306;8.636;2022-12-13T02:50:29;99998.19;;;-2.61;96.41
10060;BME280;5069;49.306;8.636;2022-12-13T02:53:33;100000.78;;;-2.59;97.28
10060;BME280;5069;49.306;8.636;2022-12-13T02:56:35;99993.88;;;-2.60;96.86
10060;BME280;5069;49.306;8.636;2022-12-13T02:59:37;99993.03;;;-2.59;97.21
10060;BME280;5069;49.306;8.636;2022-12-13T03:06:23;99989.50;;;-2.66;97.04
10060;BME280;5069;49.306;8.636;2022-12-13T03:09:45;99989.44;;;-2.72;96.21
10060;BME280;5069;49.306;8.636;2022-12-13T03:13:25;99991.19;;;-2.69;96.87
10060;BME280;5069;49.306;8.636;2022-12-13T03:16:41;99978.97;;;-2.82;96.76
10060;BME280;5069;49.306;8.636;2022-12-13T03:19:43;99976.47;;;-2.76;97.15
10060;BME280;5069;49.306;8.636;2022-12-13T03:22:45;99971.31;;;-2.76;97.23
10060;BME280;5069;49.306;8.636;2022-12-13T03:25:50;99969.63;;;-2.74;97.27
10060;BME280;5069;49.306;8.636;2022-12-13T03:28:52;99971.47;;;-2.64;96.82
10060;BME280;5069;49.306;8.636;2022-12-13T03:31:54;99969.63;;;-2.74;95.83
10060;BME280;5069;49.306;8.636;2022-12-13T03:34:55;99969.56;;;-2.80;97.19
10060;BME280;5069;49.306;8.636;2022-12-13T03:38:01;99967.91;;;-2.75;96.91
10060;BME280;5069;49.306;8.636;2022-12-13T03:41:07;99973.06;;;-2.75;97.13
10060;BME280;5069;49.306;8.636;2022-12-13T03:44:10;99971.41;;;-2.70;95.62
10060;BME280;5069;49.306;8.636;2022-12-13T03:47:11;99977.38;;;-2.74;95.80
10060;BME280;5069;49.306;8.636;2022-12-13T03:50:13;99973.06;;;-2.75;95.86
10060;BME280;5069;49.306;8.636;2022-12-13T03:53:28;99983.28;;;-2.81;95.96
10060;BME280;5069;49.306;8.636;2022-12-13T03:56:34;99973.00;;;-2.80;96.32
10060;BME280;5069;49.306;8.636;2022-12-13T03:59:37;99976.47;;;-2.79;96.17
10060;BME280;5069;49.306;8.636;2022-12-13T04:02:39;99974.75;;;-2.77;95.74
10060;BME280;5069;49.306;8.636;2022-12-13T04:05:41;99973.81;;;-2.82;95.75
10060;BME280;5069;49.306;8.636;2022-12-13T04:08:42;99965.28;;;-2.80;96.03
10060;BME280;5069;49.306;8.636;2022-12-13T04:11:44;99964.41;;;-2.79;95.14
10060;BME280;5069;49.306;8.636;2022-12-13T04:15:05;99966.09;;;-2.82;95.09
10060;BME280;5069;49.306;8.636;2022-12-13T04:18:07;99955.69;;;-2.88;94.83
10060;BME280;5069;49.306;8.636;2022-12-13T04:21:08;99960.84;;;-2.88;95.00
10060;BME280;5069;49.306;8.636;2022-12-13T04:24:09;99953.91;;;-2.93;95.00
10060;BME280;5069;49.306;8.636;2022-12-13T04:27:11;99952.19;;;-2.94;95.56
10060;BME280;5069;49.306;8.636;2022-12-13T04:30:12;99953.03;;;-2.95;94.98
10060;BME280;5069;49.306;8.636;2022-12-13T04:33:14;99944.41;;;-2.95;93.77
10060;BME280;5069;49.306;8.636;2022-12-13T04:36:15;99941.84;;;-2.97;94.51
10060;BME280;5069;49.306;8.636;2022-12-13T04:39:33;99937.47;;;-3.02;94.63
10060;BME280;5069;49.306;8.636;2022-12-13T04:42:35;99955.41;;;-3.10;94.87
10060;BME280;5069;49.306;8.636;2022-12-13T04:45:36;99945.88;;;-3.15;94.86
10060;BME280;5069;49.306;8.636;2022-12-13T04:48:38;99941.56;;;-3.16;95.65
10060;BME280;5069;49.306;8.636;2022-12-13T04:51:40;99946.81;;;-3.09;95.97
10060;BME280;5069;49.306;8.636;2022-12-13T04:54:48;99942.56;;;-3.05;94.91
10060;BME280;5069;49.306;8.636;2022-12-13T04:57:56;99950.34;;;-3.04;95.58
10060;BME280;5069;49.306;8.636;2022-12-13T05:00:58;99949.56;;;-2.95;95.09
10060;BME280;5069;49.306;8.636;2022-12-13T05:04:02;99928.03;;;-3.00;93.90
10060;BME280;5069;49.306;8.636;2022-12-13T05:07:04;99946.03;;;-3.02;94.57
10060;BME280;5069;49.306;8.636;2022-12-13T05:10:06;99939.19;;;-3.03;94.85
10060;BME280;5069;49.306;8.636;2022-12-13T05:13:07;99934.94;;;-2.98;95.39
10060;BME280;5069;49.306;8.636;2022-12-13T05:16:09;99922.06;;;-2.95;94.82
10060;BME280;5069;49.306;8.636;2022-12-13T05:19:10;99933.22;;;-2.96;93.61
10060;BME280;5069;49.306;8.636;2022-12-13T05:22:12;99928.09;;;-2.94;93.56
10060;BME280;5069;49.306;8.636;2022-12-13T05:25:21;99934.88;;;-3.01;92.65
10060;BME280;5069;49.306;8.636;2022-12-13T05:28:23;99933.13;;;-3.05;93.00
10060;BME280;5069;49.306;8.636;2022-12-13T05:31:29;99933.03;;;-3.11;93.21
10060;BME280;5069;49.306;8.636;2022-12-13T05:34:30;99927.06;;;-3.08;93.88
10060;BME280;5069;49.306;8.636;2022-12-13T05:37:32;99933.00;;;-3.14;93.05
10060;BME280;5069;49.306;8.636;2022-12-13T05:40:35;99933.84;;;-3.15;93.63
10060;BME280;5069;49.306;8.636;2022-12-13T05:43:36;99915.84;;;-3.10;93.96
10060;BME280;5069;49.306;8.636;2022-12-13T05:46:43;99914.25;;;-3.01;92.58
10060;BME280;5069;49.306;8.636;2022-12-13T05:49:45;99918.53;;;-3.01;92.79
10060;BME280;5069;49.306;8.636;2022-12-13T05:52:46;99930.75;;;-2.91;93.83
10060;BME280;5069;49.306;8.636;2022-12-13T05:55:48;99927.34;;;-2.87;92.97
10060;BME280;5069;49.306;8.636;2022-12-13T05:58:49;99938.53;;;-2.86;92.08
10060;BME280;5069;49.306;8.636;2022-12-13T06:01:55;99929.09;;;-2.86;91.16
10060;BME280;5069;49.306;8.636;2022-12-13T06:04:57;99930.72;;;-2.89;91.99
10060;BME280;5069;49.306;8.636;2022-12-13T06:07:58;99926.44;;;-2.90;90.96
10060;BME280;5069;49.306;8.636;2022-12-13T06:11:02;99930.78;;;-2.86;91.71
10060;BME280;5069;49.306;8.636;2022-12-13T06:14:13;99928.31;;;-2.77;90.55
10060;BME280;5069;49.306;8.636;2022-12-13T06:17:23;99927.47;;;-2.76;90.29
10060;BME280;5069;49.306;8.636;2022-12-13T06:20:25;99936.03;;;-2.80;88.44
10060;BME280;5069;49.306;8.636;2022-12-13T06:23:27;99941.97;;;-2.84;89.15
10060;BME280;5069;49.306;8.636;2022-12-13T06:26:31;99934.28;;;-2.81;89.76
10060;BME280;5069;49.306;8.636;2022-12-13T06:29:32;99936.09;;;-2.73;89.43
10060;BME280;5069;49.306;8.636;2022-12-13T06:32:34;99934.38;;;-2.75;88.06
10060;BME280;5069;49.306;8.636;2022-12-13T06:35:42;99947.25;;;-2.75;88.52
10060;BME280;5069;49.306;8.636;2022-12-13T06:38:44;99943.69;;;-2.86;87.95
10060;BME280;5069;49.306;8.636;2022-12-13T06:41:45;99950.50;;;-2.92;88.44
10060;BME280;5069;49.306;8.636;2022-12-13T06:44:47;99940.09;;;-2.96;89.14
10060;BME280;5069;49.306;8.636;2022-12-13T06:47:58;99940.13;;;-2.95;88.68
10060;BME280;5069;49.306;8.636;2022-12-13T06:51:02;99937.50;;;-2.99;88.46
10060;BME280;5069;49.306;8.636;2022-12-13T06:54:03;99940.94;;;-2.99;88.95
10060;BME280;5069;49.306;8.636;2022-12-13T06:57:05;99943.53;;;-2.96;89.16
10060;BME280;5069;49.306;8.636;2022-12-13T07:00:07;99940.09;;;-2.96;89.01
10060;BME280;5069;49.306;8.636;2022-12-13T07:03:11;99935.72;;;-3.03;88.09
10060;BME280;5069;49.306;8.636;2022-12-13T07:06:14;99930.56;;;-3.02;88.26
10060;BME280;5069;49.306;8.636;2022-12-13T07:09:16;99945.94;;;-3.11;88.85
10060;BME280;5069;49.306;8.636;2022-12-13T07:12:18;99938.06;;;-3.20;88.80
10060;BME280;5069;49.306;8.636;2022-12-13T07:15:21;99949.28;;;-3.16;88.94
10060;BME280;5069;49.306;8.636;2022-12-13T07:18:22;99962.81;;;-3.33;89.65
10060;BME280;5069;49.306;8.636;2022-12-13T07:21:24;99967.22;;;-3.24;90.52
10060;BME280;5069;49.306;8.636;2022-12-13T07:24:25;99968.13;;;-3.20;89.37
10060;BME280;5069;49.306;8.636;2022-12-13T07:27:27;99964.69;;;-3.21;89.92
10060;BME280;5069;49.306;8.636;2022-12-13T07:30:36;99980.16;;;-3.21;89.70
10060;BME280;5069;49.306;8.636;2022-12-13T07:33:42;99980.97;;;-3.25;89.85
10060;BME280;5069;49.306;8.636;2022-12-13T07:36:43;99989.63;;;-3.18;90.52
10060;BME280;5069;49.306;8.636;2022-12-13T07:39:44;99988.84;;;-3.13;90.19
10060;BME280;5069;49.306;8.636;2022-12-13T07:42:51;99987.91;;;-3.18;89.50
10060;BME280;5069;49.306;8.636;2022-12-13T07:45:53;99986.34;;;-3.10;89.35
10060;BME280;5069;49.306;8.636;2022-12-13T07:48:55;99991.53;;;-3.08;88.98
10060;BME280;5069;49.306;8.636;2022-12-13T07:52:02;99994.00;;;-3.14;88.75
10060;BME280;5069;49.306;8.636;2022-12-13T07:55:04;99989.03;;;-3.01;89.86
10060;BME280;5069;49.306;8.636;2022-12-13T07:58:08;99999.44;;;-2.95;87.97
10060;BME280;5069;49.306;8.636;2022-12-13T08:01:10;99996.19;;;-2.81;86.97
10060;BME280;5069;49.306;8.636;2022-12-13T08:04:14;100005.63;;;-2.85;86.75
10060;BME280;5069;49.306;8.636;2022-12-13T08:07:16;99991.03;;;-2.81;86.55
10060;BME280;5069;49.306;8.636;2022-12-13T08:10:17;99987.56;;;-2.85;87.14
10060;BME280;5069;49.306;8.636;2022-12-13T08:13:20;99978.06;;;-2.84;87.26
10060;BME280;5069;49.306;8.636;2022-12-13T08:16:22;99961.03;;;-2.73;87.24
10060;BME280;5069;49.306;8.636;2022-12-13T08:19:29;99954.25;;;-2.68;86.12
10060;BME280;5069;49.306;8.636;2022-12-13T08:22:30;99966.25;;;-2.70;86.42
10060;BME280;5069;49.306;8.636;2022-12-13T08:25:36;99979.03;;;-2.78;87.07
10060;BME280;5069;49.306;8.636;2022-12-13T08:28:38;99993.66;;;-2.77;86.24
10060;BME280;5069;49.306;8.636;2022-12-13T08:31:39;99989.47;;;-2.70;86.65
10060;BME280;5069;49.306;8.636;2022-12-13T08:34:41;99975.78;;;-2.62;86.04
10060;BME280;5069;49.306;8.636;2022-12-13T08:37:43;99982.03;;;-2.44;84.52
10060;BME280;5069;49.306;8.636;2022-12-13T08:40:44;99986.53;;;-2.27;86.07
10060;BME280;5069;49.306;8.636;2022-12-13T08:43:46;99987.44;;;-2.25;83.12
10060;BME280;5069;49.306;8.636;2022-12-13T08:46:47;99990.13;;;-2.17;83.49
10060;BME280;5069;49.306;8.636;2022-12-13T08:49:49;99991.88;;;-2.13;83.51
10060;BME280;5069;49.306;8.636;2022-12-13T08:52:51;99986.81;;;-2.02;82.67
10060;BME280;5069;49.306;8.636;2022-12-13T08:55:52;99986.88;;;-1.99;82.10
10060;BME280;5069;49.306;8.636;2022-12-13T08:58:54;99995.47;;;-1.97;81.33
10060;BME280;5069;49.306;8.636;2022-12-13T09:01:55;99989.44;;;-1.99;81.36
10060;BME280;5069;49.306;8.636;2022-12-13T09:05:06;99991.16;;;-1.98;81.72
10060;BME280;5069;49.306;8.636;2022-12-13T09:08:08;99988.56;;;-2.01;80.03
10060;BME280;5069;49.306;8.636;2022-12-13T09:11:25;99988.59;;;-1.97;81.21
10060;BME280;5069;49.306;8.636;2022-12-13T09:14:38;99981.78;;;-1.90;80.96
10060;BME280;5069;49.306;8.636;2022-12-13T09:17:46;99997.41;;;-1.78;80.49
10060;BME280;5069;49.306;8.636;2022-12-13T09:20:53;99998.25;;;-1.76;79.70
10060;BME280;5069;49.306;8.636;2022-12-13T09:24:11;99983.69;;;-1.73;79.69
10060;BME280;5069;49.306;8.636;2022-12-13T09:27:26;99992.34;;;-1.64;79.87
10060;BME280;5069;49.306;8.636;2022-12-13T09:30:29;99994.03;;;-1.68;78.45
10060;BME280;5069;49.306;8.636;2022-12-13T09:33:32;99999.06;;;-1.82;78.51
10060;BME280;5069;49.306;8.636;2022-12-13T09:36:42;100001.84;;;-1.62;78.42
10060;BME280;5069;49.306;8.636;2022-12-13T09:39:43;99997.53;;;-1.63;77.79
10060;BME280;5069;49.306;8.636;2022-12-13T09:42:48;99998.31;;;-1.70;77.58
10060;BME280;5069;49.306;8.636;2022-12-13T09:46:20;100000.97;;;-1.65;77.04
10060;BME280;5069;49.306;8.636;2022-12-13T09:49:29;99999.22;;;-1.68;76.86
10060;BME280;5069;49.306;8.636;2022-12-13T09:52:37;100000.19;;;-1.57;76.67
10060;BME280;5069;49.306;8.636;2022-12-13T09:55:50;99992.41;;;-1.60;76.15
10060;BME280;5069;49.306;8.636;2022-12-13T09:58:54;99981.19;;;-1.59;76.47
10060;BME280;5069;49.306;8.636;2022-12-13T10:02:06;99985.63;;;-1.46;75.58
10060;BME280;5069;49.306;8.636;2022-12-13T10:05:21;99993.50;;;-1.31;73.98
10060;BME280;5069;49.306;8.636;2022-12-13T10:08:44;99984.88;;;-1.33;73.93
10060;BME280;5069;49.306;8.636;2022-12-13T10:11:52;99989.16;;;-1.35;73.24
10060;BME280;5069;49.306;8.636;2022-12-13T10:14:57;99990.09;;;-1.27;73.77
10060;BME280;5069;49.306;8.636;2022-12-13T10:18:02;99974.66;;;-1.11;74.72
10060;BME280;5069;49.306;8.636;2022-12-13T10:21:12;99969.59;;;-0.99;73.25
10060;BME280;5069;49.306;8.636;2022-12-13T10:24:22;99967.78;;;-1.08;73.17
10060;BME280;5069;49.306;8.636;2022-12-13T10:27:39;99968.50;;;-1.33;73.84
10060;BME280;5069;49.306;8.636;2022-12-13T10:30:43;99955.63;;;-1.26;73.90
10060;BME280;5069;49.306;8.636;2022-12-13T10:33:52;99953.81;;;-1.37;74.41
10060;BME280;5069;49.306;8.636;2022-12-13T10:36:55;99951.22;;;-1.39;74.50
10060;BME280;5069;49.306;8.636;2022-12-13T10:40:00;99953.84;;;-1.33;74.07
10060;BME280;5069;49.306;8.636;2022-12-13T10:46:22;99948.84;;;-1.02;72.62
10060;BME280;5069;49.306;8.636;2022-12-13T10:49:29;99940.25;;;-1.01;72.99
10060;BME280;5069;49.306;8.636;2022-12-13T10:52:46;99940.34;;;-0.86;72.30
10060;BME280;5069;49.306;8.636;2022-12-13T10:55:53;99938.59;;;-0.84;71.42
10060;BME280;5069;49.306;8.636;2022-12-13T11:02:38;99928.34;;;-0.69;70.64
10060;BME280;5069;49.306;8.636;2022-12-13T11:05:40;99922.28;;;-0.71;70.53
10060;BME280;5069;49.306;8.636;2022-12-13T11:08:42;99916.28;;;-0.65;70.15
10060;BME280;5069;49.306;8.636;2022-12-13T11:11:44;99908.47;;;-0.73;69.56
10060;BME280;5069;49.306;8.636;2022-12-13T11:14:51;99907.66;;;-0.69;69.86
10060;BME280;5069;49.306;8.636;2022-12-13T11:18:01;99902.47;;;-0.66;69.84
10060;BME280;5069;49.306;8.636;2022-12-13T11:21:04;99905.03;;;-0.75;69.85
10060;BME280;5069;49.306;8.636;2022-12-13T11:24:17;99895.53;;;-0.76;70.26
10060;BME280;5069;49.306;8.636;2022-12-13T11:30:48;99904.09;;;-0.85;70.13
10060;BME280;5069;49.306;8.636;2022-12-13T11:40:26;99898.19;;;-0.58;69.51
10060;BME280;5069;49.306;8.636;2022-12-13T11:43:36;99902.50;;;-0.54;68.83
10060;BME280;5069;49.306;8.636;2022-12-13T11:46:46;99897.34;;;-0.54;69.08
10060;BME280;5069;49.306;8.636;2022-12-13T11:49:51;99891.28;;;-0.54;69.53
10060;BME280;5069;49.306;8.636;2022-12-13T11:52:55;99889.53;;;-0.64;69.63
10060;BME280;5069;49.306;8.636;2022-12-13T11:56:05;99890.41;;;-0.61;69.47
10060;BME280;5069;49.306;8.636;2022-12-13T12:02:34;99883.47;;;-0.62;68.92
10060;BME280;5069;49.306;8.636;2022-12-13T12:05:37;99873.13;;;-0.68;69.19
10060;BME280;5069;49.306;8.636;2022-12-13T12:08:44;99884.38;;;-0.60;68.93
10060;BME280;5069;49.306;8.636;2022-12-13T12:11:55;99877.47;;;-0.61;69.30
10060;BME280;5069;49.306;8.636;2022-12-13T12:18:32;99876.63;;;-0.45;68.52
10060;BME280;5069;49.306;8.636;2022-12-13T12:25:26;99868.84;;;-0.49;69.13
10060;BME280;5069;49.306;8.636;2022-12-13T12:39:15;99869.78;;;-0.24;67.77
10060;BME280;5069;49.306;8.636;2022-12-13T12:46:26;99871.47;;;-0.42;68.73
10060;BME280;5069;49.306;8.636;2022-12-13T13:00:03;99832.63;;;-0.43;68.78
10060;BME280;5069;49.306;8.636;2022-12-13T13:03:22;99843.81;;;-0.56;69.47
10060;BME280;5069;49.306;8.636;2022-12-13T13:06:26;99842.09;;;-0.56;69.37
10060;BME280;5069;49.306;8.636;2022-12-13T13:09:30;99837.81;;;-0.46;69.38
10060;BME280;5069;49.306;8.636;2022-12-13T13:12:37;99843.88;;;-0.36;69.42
10060;BME280;5069;49.306;8.636;2022-12-13T13:15:52;99838.69;;;-0.33;69.63
10060;BME280;5069;49.306;8.636;2022-12-13T13:18:56;99840.41;;;-0.35;69.31
10060;BME280;5069;49.306;8.636;2022-12-13T13:21:58;99834.34;;;-0.47;69.51
10060;BME280;5069;49.306;8.636;2022-12-13T13:28:15;99836.09;;;-0.43;69.14
10060;BME280;5069;49.306;8.636;2022-12-13T13:31:17;99829.19;;;-0.47;69.13
10060;BME280;5069;49.306;8.636;2022-12-13T13:34:24;99843.00;;;-0.32;69.07
10060;BME280;5069;49.306;8.636;2022-12-13T13:37:27;99847.31;;;-0.40;69.29
10060;BME280;5069;49.306;8.636;2022-12-13T13:40:44;99843.84;;;-0.39;69.27
10060;BME280;5069;49.306;8.636;2022-12-13T13:43:45;99840.41;;;-0.35;68.41
10060;BME280;5069;49.306;8.636;2022-12-13T13:50:40;99830.06;;;-0.26;68.59
10060;BME280;5069;49.306;8.636;2022-12-13T13:54:00;99841.28;;;-0.26;68.78
10060;BME280;5069;49.306;8.636;2022-12-13T14:05:00;99838.69;;;-0.36;68.52
10060;BME280;5069;49.306;8.636;2022-12-13T14:28:50;99827.47;;;-0.46;69.01
10060;BME280;5069;49.306;8.636;2022-12-13T14:31:52;99824.00;;;-0.47;68.82
10060;BME280;5069;49.306;8.636;2022-12-13T14:34:58;99823.13;;;-0.58;69.19
10060;BME280;5069;49.306;8.636;2022-12-13T14:38:22;99829.09;;;-0.77;69.69
10060;BME280;5069;49.306;8.636;2022-12-13T14:41:24;99832.53;;;-0.78;70.25
10060;BME280;5069;49.306;8.636;2022-12-13T14:44:30;99826.56;;;-0.59;69.89
10060;BME280;5069;49.306;8.636;2022-12-13T14:47:35;99836.06;;;-0.59;69.58
10060;BME280;5069;49.306;8.636;2022-12-13T14:50:37;99823.09;;;-0.67;69.62
10060;BME280;5069;49.306;8.636;2022-12-13T14:53:40;99821.34;;;-0.74;69.59
10060;BME280;5069;49.306;8.636;2022-12-13T14:57:15;99825.63;;;-0.79;69.94
10060;BME280;5069;49.306;8.636;2022-12-13T15:00:31;99826.53;;;-0.71;70.45
10060;BME280;5069;49.306;8.636;2022-12-13T15:03:33;99823.94;;;-0.72;70.00
10060;BME280;5069;49.306;8.636;2022-12-13T15:06:35;99814.41;;;-0.79;69.92
10060;BME280;5069;49.306;8.636;2022-12-13T15:09:39;99807.47;;;-0.91;70.88
10060;BME280;5069;49.306;8.636;2022-12-13T15:12:42;99798.00;;;-1.03;70.98
10060;BME280;5069;49.306;8.636;2022-12-13T15:15:51;99781.59;;;-1.00;71.50
10060;BME280;5069;49.306;8.636;2022-12-13T15:19:18;99779.00;;;-0.96;71.74
10060;BME280;5069;49.306;8.636;2022-12-13T15:22:36;99772.97;;;-1.05;71.55
10060;BME280;5069;49.306;8.636;2022-12-13T15:26:06;99766.91;;;-1.06;71.15
10060;BME280;5069;49.306;8.636;2022-12-13T15:29:10;99774.69;;;-1.10;71.60
10060;BME280;5069;49.306;8.636;2022-12-13T15:32:17;99772.91;;;-1.20;71.42
10060;BME280;5069;49.306;8.636;2022-12-13T15:35:25;99764.28;;;-1.26;72.04
10060;BME280;5069;49.306;8.636;2022-12-13T15:38:27;99764.28;;;-1.22;72.34
10060;BME280;5069;49.306;8.636;2022-12-13T15:41:35;99759.13;;;-1.16;72.44
10060;BME280;5069;49.306;8.636;2022-12-13T15:44:51;99747.09;;;-1.07;72.42
10060;BME280;5069;49.306;8.636;2022-12-13T15:47:54;99742.81;;;-0.99;71.88
10060;BME280;5069;49.306;8.636;2022-12-13T15:51:17;99736.75;;;-1.02;72.09
10060;BME280;5069;49.306;8.636;2022-12-13T15:54:31;99742.81;;;-0.94;71.94
10060;BME280;5069;49.306;8.636;2022-12-13T15:57:35;99731.56;;;-1.02;71.57
10060;BME280;5069;49.306;8.636;2022-12-13T16:00:48;99739.34;;;-1.04;71.47
10060;BME280;5069;49.306;8.636;2022-12-13T16:03:49;99738.47;;;-0.97;71.63
10060;BME280;5069;49.306;8.636;2022-12-13T16:06:52;99750.56;;;-1.00;71.97
10060;BME280;5069;49.306;8.636;2022-12-13T16:09:54;99737.63;;;-0.96;72.29
10060;BME280;5069;49.306;8.636;2022-12-13T16:13:05;99717.78;;;-1.10;71.71
10060;BME280;5069;49.306;8.636;2022-12-13T16:19:14;99710.78;;;-1.36;73.02
10060;BME280;5069;49.306;8.636;2022-12-13T16:22:18;99717.69;;;-1.35;73.30
10060;BME280;5069;49.306;8.636;2022-12-13T16:25:22;99724.66;;;-1.21;72.76
10060;BME280;5069;49.306;8.636;2022-12-13T16:28:23;99728.09;;;-1.26;72.62
10060;BME280;5069;49.306;8.636;2022-12-13T16:31:28;99731.50;;;-1.30;72.75
10060;BME280;5069;49.306;8.636;2022-12-13T16:34:36;99719.44;;;-1.34;73.02
10060;BME280;5069;49.306;8.636;2022-12-13T16:37:38;99721.16;;;-1.33;73.27
10060;BME280;5069;49.306;8.636;2022-12-13T16:40:42;99714.25;;;-1.43;73.45
10060;BME280;5069;49.306;8.636;2022-12-13T16:44:02;99727.16;;;-1.41;73.68
10060;BME280;5069;49.306;8.636;2022-12-13T16:47:08;99735.78;;;-1.35;73.40
10060;BME280;5069;49.306;8.636;2022-12-13T16:50:24;99735.84;;;-1.27;74.00
10060;BME280;5069;49.306;8.636;2022-12-13T16:53:26;99730.66;;;-1.22;73.00
10060;BME280;5069;49.306;8.636;2022-12-13T16:56:28;99736.69;;;-1.23;73.12
10060;BME280;5069;49.306;8.636;2022-12-13T16:59:29;99743.56;;;-1.29;73.38
10060;BME280;5069;49.306;8.636;2022-12-13T17:02:31;99741.84;;;-1.33;73.34
10060;BME280;5069;49.306;8.636;2022-12-13T17:05:33;99737.53;;;-1.29;73.64
10060;BME280;5069;49.306;8.636;2022-12-13T17:08:35;99734.06;;;-1.34;74.11
10060;BME280;5069;49.306;8.636;2022-12-13T17:11:37;99734.91;;;-1.40;74.56
10060;BME280;5069;49.306;8.636;2022-12-13T17:14:38;99711.63;;;-1.47;75.14
10060;BME280;5069;49.306;8.636;2022-12-13T17:17:43;99718.56;;;-1.39;75.64
10060;BME280;5069;49.306;8.636;2022-12-13T17:20:45;99714.22;;;-1.46;75.35
10060;BME280;5069;49.306;8.636;2022-12-13T17:23:59;99708.16;;;-1.54;75.56
10060;BME280;5069;49.306;8.636;2022-12-13T17:27:01;99701.22;;;-1.59;76.33
10060;BME280;5069;49.306;8.636;2022-12-13T17:30:07;99688.38;;;-1.46;75.66
10060;BME280;5069;49.306;8.636;2022-12-13T17:33:09;99686.66;;;-1.41;75.81
10060;BME280;5069;49.306;8.636;2022-12-13T17:36:14;99679.75;;;-1.45;76.02
10060;BME280;5069;49.306;8.636;2022-12-13T17:39:16;99679.75;;;-1.45;75.88
10060;BME280;5069;49.306;8.636;2022-12-13T17:42:17;99690.13;;;-1.39;75.61
10060;BME280;5069;49.306;8.636;2022-12-13T17:45:19;99690.13;;;-1.39;75.74
10060;BME280;5069;49.306;8.636;2022-12-13T17:48:21;99686.63;;;-1.47;76.47
10060;BME280;5069;49.306;8.636;2022-12-13T17:51:23;99693.56;;;-1.40;76.35
10060;BME280;5069;49.306;8.636;2022-12-13T17:54:25;99688.41;;;-1.43;76.09
10060;BME280;5069;49.306;8.636;2022-12-13T17:57:26;99686.66;;;-1.41;76.31
10060;BME280;5069;49.306;8.636;2022-12-13T18:00:28;99690.06;;;-1.48;76.87
10060;BME280;5069;49.306;8.636;2022-12-13T18:03:29;99684.06;;;-1.45;77.23
10060;BME280;5069;49.306;8.636;2022-12-13T18:06:32;99695.28;;;-1.36;76.59
10060;BME280;5069;49.306;8.636;2022-12-13T18:09:34;99683.25;;;-1.34;76.08
10060;BME280;5069;49.306;8.636;2022-12-13T18:12:35;99685.84;;;-1.32;76.61
10060;BME280;5069;49.306;8.636;2022-12-13T18:15:36;99672.91;;;-1.38;77.05
10060;BME280;5069;49.306;8.636;2022-12-13T18:18:40;99665.13;;;-1.35;77.10
10060;BME280;5069;49.306;8.636;2022-12-13T18:21:41;99651.38;;;-1.31;76.33
10060;BME280;5069;49.306;8.636;2022-12-13T18:24:46;99673.75;;;-1.38;77.07